Time;durP1;ratioP1;P1;durP2;ratioP2;P2;SDS_P1;SDS_P2;PMS_P1;PMS_P2;Temp;Humidity;BMP_temperature;BMP_pressure;BME280_temperature;BME280_humidity;BME280_pressure;Samples;Min_cycle;Max_cycle;Signal;HPM_P1;HPM_P2
2023/12/19 00:01:17;;;;;;;34.42;11.80;;;;;;;;;;4927346;29;20137;-76
2023/12/19 00:03:43;;;;;;;34.55;12.48;;;;;;;;;;4906608;28;20100;-76
2023/12/19 00:06:09;;;;;;;34.92;12.93;;;;;;;;;;4931326;29;20059;-76
2023/12/19 00:08:36;;;;;;;30.50;13.73;;;;;;;;;;4904933;29;20482;-76
2023/12/19 00:11:02;;;;;;;29.80;13.68;;;;;;;;;;4909978;29;20074;-76
2023/12/19 00:13:28;;;;;;;28.38;14.32;;;;;;;;;;4907948;29;20043;-76
2023/12/19 00:15:55;;;;;;;33.97;15.40;;;;;;;;;;4936659;29;20039;-76
2023/12/19 00:18:21;;;;;;;33.58;15.55;;;;;;;;;;4905727;29;20036;-76
2023/12/19 00:20:47;;;;;;;35.88;14.50;;;;;;;;;;4927055;29;20043;-76
2023/12/19 00:23:13;;;;;;;24.42;14.48;;;;;;;;;;4928205;29;20043;-76
2023/12/19 00:25:39;;;;;;;28.15;14.43;;;;;;;;;;4905708;29;20518;-76
2023/12/19 00:28:06;;;;;;;28.35;14.40;;;;;;;;;;4905837;29;20044;-76
2023/12/19 00:30:32;;;;;;;26.48;14.82;;;;;;;;;;4926425;29;20103;-75
2023/12/19 00:32:58;;;;;;;28.45;14.65;;;;;;;;;;4904037;29;20052;-75
2023/12/19 00:35:24;;;;;;;26.63;13.85;;;;;;;;;;4922553;29;20101;-76
2023/12/19 00:37:50;;;;;;;24.70;14.18;;;;;;;;;;4934085;29;20035;-75
2023/12/19 00:40:16;;;;;;;23.13;13.65;;;;;;;;;;4931795;29;20114;-75
2023/12/19 00:42:42;;;;;;;24.77;13.77;;;;;;;;;;4921230;29;20492;-82
2023/12/19 00:45:08;;;;;;;21.92;13.73;;;;;;;;;;4926742;29;20039;-81
2023/12/19 00:47:34;;;;;;;23.70;12.63;;;;;;;;;;4903575;29;20040;-82
2023/12/19 00:50:00;;;;;;;23.83;13.20;;;;;;;;;;4927070;29;20039;-81
2023/12/19 00:52:27;;;;;;;23.33;12.70;;;;;;;;;;4937898;29;20047;-81
2023/12/19 00:54:53;;;;;;;22.92;13.07;;;;;;;;;;4939129;29;20154;-82
2023/12/19 00:57:19;;;;;;;20.67;12.05;;;;;;;;;;4939555;29;20093;-82
2023/12/19 00:59:45;;;;;;;21.08;12.55;;;;;;;;;;4955977;28;20495;-82
2023/12/19 01:02:12;;;;;;;19.52;11.80;;;;;;;;;;4929623;29;20036;-82
2023/12/19 01:04:38;;;;;;;20.65;13.00;;;;;;;;;;4892251;29;20188;-82
2023/12/19 01:07:04;;;;;;;21.02;13.32;;;;;;;;;;4930141;29;20400;-82
2023/12/19 01:09:30;;;;;;;18.75;12.10;;;;;;;;;;4917962;29;20047;-81
2023/12/19 01:11:56;;;;;;;19.40;12.70;;;;;;;;;;4907147;29;20495;-82
2023/12/19 01:14:22;;;;;;;17.35;11.63;;;;;;;;;;4923024;28;20043;-82
2023/12/19 01:16:48;;;;;;;16.95;10.50;;;;;;;;;;4935364;29;20047;-81
2023/12/19 01:19:14;;;;;;;18.88;11.35;;;;;;;;;;4938626;29;20046;-81
2023/12/19 01:21:40;;;;;;;15.90;10.38;;;;;;;;;;4937938;29;20039;-81
2023/12/19 01:24:06;;;;;;;16.15;10.63;;;;;;;;;;4922783;29;20043;-81
2023/12/19 01:26:33;;;;;;;17.48;11.02;;;;;;;;;;4938190;29;20043;-81
2023/12/19 01:28:59;;;;;;;17.75;12.35;;;;;;;;;;4921195;29;20044;-81
2023/12/19 01:31:25;;;;;;;17.67;11.93;;;;;;;;;;4936015;29;20086;-81
2023/12/19 01:33:52;;;;;;;16.80;11.90;;;;;;;;;;4919093;29;20054;-80
2023/12/19 01:36:18;;;;;;;17.48;11.80;;;;;;;;;;4899197;29;20054;-81
2023/12/19 01:38:44;;;;;;;15.93;11.15;;;;;;;;;;4925123;29;20056;-81
2023/12/19 01:41:10;;;;;;;18.00;11.45;;;;;;;;;;4938260;29;20082;-81
2023/12/19 01:43:36;;;;;;;16.05;11.32;;;;;;;;;;4931223;29;20078;-81
2023/12/19 01:46:02;;;;;;;15.10;10.75;;;;;;;;;;4937896;29;20039;-81
2023/12/19 01:48:29;;;;;;;13.70;10.35;;;;;;;;;;4938308;29;20159;-81
2023/12/19 01:50:55;;;;;;;16.30;10.82;;;;;;;;;;4938295;29;20039;-81
2023/12/19 01:53:23;;;;;;;16.05;10.70;;;;;;;;;;4938600;29;20094;-80
2023/12/19 01:55:51;;;;;;;16.70;11.48;;;;;;;;;;4943658;29;20130;-81
2023/12/19 01:58:18;;;;;;;14.07;10.63;;;;;;;;;;4934185;29;20098;-82
2023/12/19 02:00:44;;;;;;;14.55;11.15;;;;;;;;;;4936529;29;20047;-81
2023/12/19 02:03:10;;;;;;;15.25;11.23;;;;;;;;;;4911930;29;20131;-81
2023/12/19 02:05:39;;;;;;;15.05;10.85;;;;;;;;;;4923847;29;20054;-81
2023/12/19 02:08:06;;;;;;;14.68;10.80;;;;;;;;;;4937704;29;20043;-81
2023/12/19 02:10:32;;;;;;;15.95;10.95;;;;;;;;;;4940353;29;20039;-82
2023/12/19 02:12:58;;;;;;;13.35;10.40;;;;;;;;;;4933519;29;20388;-81
2023/12/19 02:15:24;;;;;;;14.88;10.05;;;;;;;;;;4925572;29;20126;-76
2023/12/19 02:17:50;;;;;;;14.18;10.50;;;;;;;;;;4926255;29;20054;-75
2023/12/19 02:20:16;;;;;;;14.23;10.15;;;;;;;;;;4909026;29;20507;-75
2023/12/19 02:22:43;;;;;;;14.75;10.07;;;;;;;;;;4924918;29;20043;-76
2023/12/19 02:25:09;;;;;;;13.07;10.15;;;;;;;;;;4937061;29;20035;-76
2023/12/19 02:27:39;;;;;;;14.45;10.30;;;;;;;;;;4928068;28;20039;-76
2023/12/19 02:30:06;;;;;;;13.15;10.27;;;;;;;;;;4928002;28;20043;-76
2023/12/19 02:32:36;;;;;;;14.80;10.23;;;;;;;;;;4932323;29;20099;-76
2023/12/19 02:35:02;;;;;;;12.27;9.40;;;;;;;;;;4932493;29;20039;-76
2023/12/19 02:37:28;;;;;;;12.48;9.27;;;;;;;;;;4933293;29;20051;-76
2023/12/19 02:39:54;;;;;;;12.75;9.35;;;;;;;;;;4913078;29;20047;-76
2023/12/19 02:42:20;;;;;;;13.02;9.23;;;;;;;;;;4940968;29;20075;-76
2023/12/19 02:44:46;;;;;;;12.27;9.23;;;;;;;;;;4943205;29;20040;-76
2023/12/19 02:47:12;;;;;;;13.90;9.43;;;;;;;;;;4944070;29;20093;-76
2023/12/19 02:49:38;;;;;;;11.93;9.60;;;;;;;;;;4942764;29;20043;-76
2023/12/19 02:52:04;;;;;;;13.90;9.50;;;;;;;;;;4942190;29;20047;-77
2023/12/19 02:54:30;;;;;;;12.95;9.68;;;;;;;;;;4937616;29;20101;-76
2023/12/19 02:56:56;;;;;;;12.05;9.13;;;;;;;;;;4926155;28;20074;-76
2023/12/19 02:59:22;;;;;;;13.32;9.43;;;;;;;;;;4942632;28;20039;-76
2023/12/19 03:01:48;;;;;;;13.02;9.80;;;;;;;;;;4930027;29;20039;-77
2023/12/19 03:04:15;;;;;;;13.30;9.68;;;;;;;;;;4929523;29;20179;-76
2023/12/19 03:06:41;;;;;;;18.10;9.63;;;;;;;;;;4932597;29;20042;-77
2023/12/19 03:09:07;;;;;;;11.10;8.63;;;;;;;;;;4909012;29;20044;-76
2023/12/19 03:11:37;;;;;;;12.57;9.65;;;;;;;;;;4933432;29;20070;-77
2023/12/19 03:14:03;;;;;;;13.50;9.68;;;;;;;;;;4908634;29;20103;-77
2023/12/19 03:16:29;;;;;;;14.38;10.35;;;;;;;;;;4920865;29;20043;-76
2023/12/19 03:18:55;;;;;;;14.18;9.88;;;;;;;;;;4921629;29;20517;-76
2023/12/19 03:21:21;;;;;;;12.65;9.68;;;;;;;;;;4906747;29;20208;-76
2023/12/19 03:23:47;;;;;;;12.70;9.60;;;;;;;;;;4921302;29;20048;-76
2023/12/19 03:26:13;;;;;;;14.80;10.43;;;;;;;;;;4924541;29;20043;-76
2023/12/19 03:28:39;;;;;;;12.60;9.68;;;;;;;;;;4924509;29;20049;-76
2023/12/19 03:31:05;;;;;;;11.90;9.50;;;;;;;;;;4937071;29;20502;-76
2023/12/19 03:33:32;;;;;;;13.65;9.80;;;;;;;;;;4940678;29;20106;-77
2023/12/19 03:35:58;;;;;;;13.02;9.75;;;;;;;;;;4924585;29;20047;-77
2023/12/19 03:38:24;;;;;;;14.25;9.98;;;;;;;;;;4919502;29;20035;-77
2023/12/19 03:40:50;;;;;;;13.90;9.82;;;;;;;;;;4929782;29;20042;-77
2023/12/19 03:43:16;;;;;;;14.15;10.55;;;;;;;;;;4939605;29;20039;-76
2023/12/19 03:45:42;;;;;;;12.50;9.63;;;;;;;;;;4931286;29;20048;-77
2023/12/19 03:48:08;;;;;;;12.32;9.25;;;;;;;;;;4935817;29;20048;-77
2023/12/19 03:50:34;;;;;;;12.55;9.65;;;;;;;;;;4938579;29;20097;-77
2023/12/19 03:53:01;;;;;;;12.30;9.02;;;;;;;;;;4934873;29;20361;-77
2023/12/19 03:55:27;;;;;;;11.70;8.45;;;;;;;;;;4938254;29;20050;-76
2023/12/19 03:57:53;;;;;;;12.25;8.55;;;;;;;;;;4938260;29;20550;-77
2023/12/19 04:00:19;;;;;;;11.88;8.93;;;;;;;;;;4939618;29;20377;-77
2023/12/19 04:02:45;;;;;;;10.15;8.07;;;;;;;;;;4930296;29;20042;-77
2023/12/19 04:05:11;;;;;;;10.90;8.10;;;;;;;;;;4938114;29;20051;-77
2023/12/19 04:07:37;;;;;;;11.13;8.00;;;;;;;;;;4920938;29;20118;-77
2023/12/19 04:10:04;;;;;;;10.45;8.10;;;;;;;;;;4931704;29;20507;-76
2023/12/19 04:12:30;;;;;;;10.15;8.00;;;;;;;;;;4892814;29;20379;-77
2023/12/19 04:14:56;;;;;;;11.13;7.70;;;;;;;;;;4923787;29;20047;-77
2023/12/19 04:17:22;;;;;;;11.05;8.02;;;;;;;;;;4936178;29;20114;-77
2023/12/19 04:19:48;;;;;;;10.95;7.65;;;;;;;;;;4936118;29;20119;-78
2023/12/19 04:22:14;;;;;;;10.95;7.65;;;;;;;;;;4921694;29;20062;-77
2023/12/19 04:24:40;;;;;;;10.60;7.78;;;;;;;;;;4906359;29;20087;-78
2023/12/19 04:27:06;;;;;;;10.30;7.63;;;;;;;;;;4939216;29;20401;-77
2023/12/19 04:29:32;;;;;;;9.57;7.25;;;;;;;;;;4934483;29;20078;-78
2023/12/19 04:31:58;;;;;;;10.35;7.35;;;;;;;;;;4928204;29;20126;-78
2023/12/19 04:34:24;;;;;;;8.45;6.90;;;;;;;;;;4915879;29;20503;-79
2023/12/19 04:36:50;;;;;;;10.10;7.20;;;;;;;;;;4931252;29;20047;-78
2023/12/19 04:39:16;;;;;;;9.85;7.15;;;;;;;;;;4933345;29;20106;-78
2023/12/19 04:41:42;;;;;;;9.70;7.18;;;;;;;;;;4922377;29;20044;-78
2023/12/19 04:44:08;;;;;;;8.63;6.60;;;;;;;;;;4919706;29;20035;-78
2023/12/19 04:46:34;;;;;;;8.68;6.75;;;;;;;;;;4888178;29;20054;-78
2023/12/19 04:49:01;;;;;;;8.32;6.60;;;;;;;;;;4904221;29;20036;-78
2023/12/19 04:51:27;;;;;;;8.85;6.63;;;;;;;;;;4909329;29;20042;-78
2023/12/19 04:53:53;;;;;;;9.15;6.75;;;;;;;;;;4919329;29;20071;-77
2023/12/19 04:56:19;;;;;;;8.30;6.20;;;;;;;;;;4921904;29;20153;-77
2023/12/19 04:58:49;;;;;;;9.02;6.60;;;;;;;;;;4925104;29;20039;-78
2023/12/19 05:01:16;;;;;;;9.82;6.18;;;;;;;;;;4929315;29;20043;-78
2023/12/19 05:03:42;;;;;;;7.68;5.93;;;;;;;;;;4921408;29;20043;-78
2023/12/19 05:06:08;;;;;;;7.43;5.95;;;;;;;;;;4917104;29;20060;-78
2023/12/19 05:08:34;;;;;;;8.52;6.28;;;;;;;;;;4917028;29;20050;-77
2023/12/19 05:11:00;;;;;;;7.43;5.90;;;;;;;;;;4929313;29;20447;-76
2023/12/19 05:13:27;;;;;;;7.93;6.18;;;;;;;;;;4933841;29;20479;-78
2023/12/19 05:15:53;;;;;;;7.60;5.68;;;;;;;;;;4930854;29;20047;-79
2023/12/19 05:18:19;;;;;;;8.32;6.25;;;;;;;;;;4903667;29;20048;-79
2023/12/19 05:20:45;;;;;;;7.20;5.88;;;;;;;;;;4922922;29;20055;-79
2023/12/19 05:23:11;;;;;;;7.00;5.35;;;;;;;;;;4906315;29;20044;-78
2023/12/19 05:25:37;;;;;;;7.38;5.78;;;;;;;;;;4929087;29;20051;-79
2023/12/19 05:28:04;;;;;;;7.57;5.75;;;;;;;;;;4907109;29;20051;-79
2023/12/19 05:30:30;;;;;;;6.13;5.07;;;;;;;;;;4925745;29;20114;-79
2023/12/19 05:32:56;;;;;;;7.20;5.60;;;;;;;;;;4910653;29;20047;-80
2023/12/19 05:35:23;;;;;;;8.82;5.82;;;;;;;;;;4901023;29;20040;-79
2023/12/19 05:37:49;;;;;;;7.32;6.10;;;;;;;;;;4925790;29;20100;-80
2023/12/19 05:40:16;;;;;;;8.57;5.65;;;;;;;;;;4900065;29;20088;-78
2023/12/19 05:42:42;;;;;;;7.43;5.60;;;;;;;;;;4909026;29;20042;-78
2023/12/19 05:45:08;;;;;;;6.50;5.55;;;;;;;;;;4903193;29;20044;-77
2023/12/19 05:47:35;;;;;;;7.18;5.65;;;;;;;;;;4922870;29;20035;-77
2023/12/19 05:50:01;;;;;;;7.55;5.70;;;;;;;;;;4912628;29;20058;-78
2023/12/19 05:52:27;;;;;;;6.68;5.38;;;;;;;;;;4920155;29;20043;-78
2023/12/19 05:54:53;;;;;;;8.70;5.47;;;;;;;;;;4922297;29;20075;-78
2023/12/19 05:57:20;;;;;;;8.82;5.80;;;;;;;;;;4900213;29;20056;-78
2023/12/19 05:59:46;;;;;;;6.55;5.50;;;;;;;;;;4908398;29;20539;-79
2023/12/19 06:02:13;;;;;;;6.78;5.35;;;;;;;;;;4901109;29;20040;-78
2023/12/19 06:04:39;;;;;;;7.30;5.35;;;;;;;;;;4897297;29;20035;-77
2023/12/19 06:07:05;;;;;;;7.82;5.45;;;;;;;;;;4919368;29;20496;-77
2023/12/19 06:09:31;;;;;;;6.55;5.40;;;;;;;;;;4933605;29;20071;-76
2023/12/19 06:11:58;;;;;;;7.35;6.07;;;;;;;;;;4934869;29;20475;-77
2023/12/19 06:14:24;;;;;;;6.50;5.70;;;;;;;;;;4933143;29;20043;-76
2023/12/19 06:16:50;;;;;;;8.18;6.20;;;;;;;;;;4928926;29;20080;-77
2023/12/19 06:19:16;;;;;;;6.88;5.53;;;;;;;;;;4923433;29;20039;-76
2023/12/19 06:21:42;;;;;;;7.95;6.53;;;;;;;;;;4935724;29;20045;-76
2023/12/19 06:24:08;;;;;;;9.20;6.03;;;;;;;;;;4935929;29;20484;-76
2023/12/19 06:26:34;;;;;;;8.88;6.90;;;;;;;;;;4935084;29;20440;-77
2023/12/19 06:29:01;;;;;;;8.45;6.47;;;;;;;;;;4934515;29;20392;-77
2023/12/19 06:31:27;;;;;;;7.18;6.07;;;;;;;;;;4919597;29;20404;-76
2023/12/19 06:33:53;;;;;;;7.80;6.10;;;;;;;;;;4919850;29;20032;-77
2023/12/19 06:36:31;;;;;;;7.82;6.38;;;;;;;;;;4908968;29;20040;-77
2023/12/19 06:38:57;;;;;;;7.38;6.57;;;;;;;;;;4917572;29;20043;-76
2023/12/19 06:41:23;;;;;;;7.40;6.18;;;;;;;;;;4933320;29;20488;-74
2023/12/19 06:43:49;;;;;;;7.70;6.38;;;;;;;;;;4924371;29;20061;-76
2023/12/19 06:46:16;;;;;;;8.77;6.28;;;;;;;;;;4915440;29;20070;-75
2023/12/19 06:48:42;;;;;;;7.47;6.25;;;;;;;;;;4916593;29;20560;-75
2023/12/19 06:51:08;;;;;;;6.60;5.72;;;;;;;;;;4931550;29;20066;-75
2023/12/19 06:53:34;;;;;;;8.18;5.60;;;;;;;;;;4928538;29;20099;-75
2023/12/19 06:56:00;;;;;;;8.05;5.85;;;;;;;;;;4940529;29;20058;-74
2023/12/19 06:58:26;;;;;;;6.82;5.55;;;;;;;;;;4923890;28;20085;-74
2023/12/19 07:00:52;;;;;;;7.25;5.15;;;;;;;;;;4923464;29;20071;-74
2023/12/19 07:03:18;;;;;;;6.38;5.30;;;;;;;;;;4940411;29;20043;-74
2023/12/19 07:05:44;;;;;;;5.47;4.75;;;;;;;;;;4921326;29;20056;-74
2023/12/19 07:08:10;;;;;;;6.30;5.25;;;;;;;;;;4921495;29;20051;-74
2023/12/19 07:10:37;;;;;;;7.20;4.60;;;;;;;;;;4927921;29;20047;-75
2023/12/19 07:13:03;;;;;;;5.55;4.50;;;;;;;;;;4940294;29;20121;-74
2023/12/19 07:15:29;;;;;;;7.00;4.65;;;;;;;;;;4940268;29;20075;-74
2023/12/19 07:17:55;;;;;;;5.38;4.32;;;;;;;;;;4926827;29;20043;-74
2023/12/19 07:20:21;;;;;;;7.07;4.57;;;;;;;;;;4921694;29;20071;-75
2023/12/19 07:22:47;;;;;;;5.85;4.60;;;;;;;;;;4889874;29;20043;-75
2023/12/19 07:25:13;;;;;;;5.03;4.18;;;;;;;;;;4920986;29;20040;-75
2023/12/19 07:27:39;;;;;;;5.75;4.53;;;;;;;;;;4921796;29;20522;-75
2023/12/19 07:30:06;;;;;;;5.88;4.80;;;;;;;;;;4908629;29;20054;-75
2023/12/19 07:32:32;;;;;;;6.07;4.88;;;;;;;;;;4908431;29;20050;-75
2023/12/19 07:34:58;;;;;;;5.35;4.57;;;;;;;;;;4924365;29;20039;-75
2023/12/19 07:37:24;;;;;;;6.55;5.20;;;;;;;;;;4924418;29;20058;-75
2023/12/19 07:39:50;;;;;;;7.50;5.10;;;;;;;;;;4939776;28;20372;-75
2023/12/19 07:42:17;;;;;;;6.03;5.15;;;;;;;;;;4924361;29;20428;-75
2023/12/19 07:44:43;;;;;;;6.57;5.38;;;;;;;;;;4928074;29;20067;-75
2023/12/19 07:47:09;;;;;;;6.45;5.00;;;;;;;;;;4927399;29;20067;-75
2023/12/19 07:49:35;;;;;;;6.00;5.00;;;;;;;;;;4939634;29;20043;-75
2023/12/19 07:52:03;;;;;;;7.45;5.10;;;;;;;;;;4923870;29;20130;-75
2023/12/19 07:54:30;;;;;;;8.20;5.22;;;;;;;;;;4923903;28;20051;-75
2023/12/19 07:56:58;;;;;;;6.40;5.22;;;;;;;;;;4939434;29;20043;-76
2023/12/19 07:59:24;;;;;;;6.85;5.47;;;;;;;;;;4939521;28;20051;-75
2023/12/19 08:01:50;;;;;;;7.07;5.47;;;;;;;;;;4938885;29;20081;-75
2023/12/19 08:04:16;;;;;;;9.00;5.40;;;;;;;;;;4923132;29;20039;-75
2023/12/19 08:06:42;;;;;;;7.32;5.57;;;;;;;;;;4923172;29;20055;-75
2023/12/19 08:09:11;;;;;;;6.32;5.43;;;;;;;;;;4930322;29;20035;-75
2023/12/19 08:11:37;;;;;;;7.22;5.75;;;;;;;;;;4939289;29;20039;-75
2023/12/19 08:14:03;;;;;;;7.82;6.13;;;;;;;;;;4935278;29;20416;-75
2023/12/19 08:16:29;;;;;;;8.02;6.18;;;;;;;;;;4925924;29;20039;-75
2023/12/19 08:18:55;;;;;;;7.78;5.97;;;;;;;;;;4931926;29;20046;-75
2023/12/19 08:21:21;;;;;;;7.32;5.78;;;;;;;;;;4919998;29;20048;-75
2023/12/19 08:23:48;;;;;;;7.93;6.10;;;;;;;;;;4910977;29;20047;-75
2023/12/19 08:26:14;;;;;;;9.50;6.43;;;;;;;;;;4939163;29;20047;-75
2023/12/19 08:28:40;;;;;;;6.93;5.75;;;;;;;;;;4938995;29;20042;-75
2023/12/19 08:31:06;;;;;;;9.43;6.10;;;;;;;;;;4939017;29;20039;-75
2023/12/19 08:33:32;;;;;;;7.85;5.72;;;;;;;;;;4938924;29;20047;-75
2023/12/19 08:35:58;;;;;;;7.85;5.47;;;;;;;;;;4916049;29;20052;-75
2023/12/19 08:38:24;;;;;;;7.85;5.70;;;;;;;;;;4904233;29;20469;-75
2023/12/19 08:40:50;;;;;;;7.43;5.80;;;;;;;;;;4903920;29;20472;-75
2023/12/19 08:43:19;;;;;;;7.05;5.57;;;;;;;;;;4919630;29;20044;-75
2023/12/19 08:45:46;;;;;;;6.95;5.32;;;;;;;;;;4904952;29;20035;-75
2023/12/19 08:48:12;;;;;;;6.38;5.13;;;;;;;;;;4888547;29;20062;-76
2023/12/19 08:50:38;;;;;;;7.22;4.88;;;;;;;;;;4919724;29;20048;-76
2023/12/19 08:53:05;;;;;;;6.10;4.82;;;;;;;;;;4919711;29;20275;-76
2023/12/19 08:55:31;;;;;;;5.50;4.90;;;;;;;;;;4904271;29;20048;-76
2023/12/19 08:57:57;;;;;;;6.70;4.90;;;;;;;;;;4919667;29;20051;-76
2023/12/19 09:00:23;;;;;;;8.40;5.00;;;;;;;;;;4888279;29;20039;-76
2023/12/19 09:02:49;;;;;;;8.55;5.25;;;;;;;;;;4919486;29;20043;-76
2023/12/19 09:05:19;;;;;;;5.63;4.57;;;;;;;;;;4919244;29;20091;-76
2023/12/19 09:07:49;;;;;;;7.53;5.68;;;;;;;;;;4930688;29;20043;-76
2023/12/19 09:10:16;;;;;;;6.53;5.13;;;;;;;;;;4915169;29;20035;-76
2023/12/19 09:12:42;;;;;;;6.78;4.97;;;;;;;;;;4937851;29;20047;-76
2023/12/19 09:15:08;;;;;;;9.25;5.35;;;;;;;;;;4937509;29;20407;-76
2023/12/19 09:17:35;;;;;;;9.32;5.80;;;;;;;;;;4927216;29;20044;-76
2023/12/19 09:20:05;;;;;;;8.80;5.30;;;;;;;;;;4927901;28;20051;-76
2023/12/19 09:22:31;;;;;;;7.93;5.70;;;;;;;;;;4921691;29;20110;-76
2023/12/19 09:24:57;;;;;;;10.00;6.18;;;;;;;;;;4923020;29;20043;-76
2023/12/19 09:27:24;;;;;;;9.82;6.13;;;;;;;;;;4925012;29;20043;-75
2023/12/19 09:29:50;;;;;;;9.00;6.32;;;;;;;;;;4929187;29;20067;-75
2023/12/19 09:32:18;;;;;;;8.57;6.25;;;;;;;;;;4910811;29;20134;-75
2023/12/19 09:34:44;;;;;;;9.10;6.20;;;;;;;;;;4936596;28;20102;-75
2023/12/19 09:37:10;;;;;;;9.13;6.38;;;;;;;;;;4923268;29;20492;-76
2023/12/19 09:39:37;;;;;;;7.95;6.10;;;;;;;;;;4927319;29;20082;-76
2023/12/19 09:42:03;;;;;;;8.73;6.15;;;;;;;;;;4897326;29;20043;-76
2023/12/19 09:44:29;;;;;;;8.23;6.13;;;;;;;;;;4907161;29;20035;-76
2023/12/19 09:46:55;;;;;;;7.47;5.47;;;;;;;;;;4928184;29;20413;-76
2023/12/19 09:49:23;;;;;;;7.90;5.78;;;;;;;;;;4892954;29;20047;-77
2023/12/19 09:51:53;;;;;;;8.65;6.00;;;;;;;;;;4940277;29;20039;-76
2023/12/19 09:54:23;;;;;;;13.93;7.90;;;;;;;;;;4933787;29;20054;-76
2023/12/19 09:56:50;;;;;;;18.63;9.77;;;;;;;;;;4922566;29;20051;-76
2023/12/19 09:59:19;;;;;;;12.25;8.30;;;;;;;;;;4906530;28;20550;-76
2023/12/19 10:01:46;;;;;;;9.75;6.15;;;;;;;;;;4910452;28;20400;-77
2023/12/19 10:04:16;;;;;;;7.55;5.57;;;;;;;;;;4907302;29;20106;-77
2023/12/19 10:06:55;;;;;;;9.05;6.03;;;;;;;;;;4922051;29;20055;-76
2023/12/19 10:09:22;;;;;;;9.32;5.90;;;;;;;;;;4921772;29;20126;-76
2023/12/19 10:12:04;;;;;;;12.05;7.22;;;;;;;;;;4923106;29;20167;-76
2023/12/19 10:14:32;;;;;;;13.60;6.75;;;;;;;;;;4909856;29;20062;-82
2023/12/19 10:16:59;;;;;;;12.60;6.70;;;;;;;;;;4928150;29;20211;-81
2023/12/19 10:19:26;;;;;;;10.05;5.70;;;;;;;;;;4911408;29;20050;-82
2023/12/19 10:22:04;;;;;;;10.30;5.60;;;;;;;;;;4914315;29;20035;-82
2023/12/19 10:24:30;;;;;;;9.23;5.57;;;;;;;;;;4924255;28;20111;-82
2023/12/19 10:27:05;;;;;;;9.27;5.70;;;;;;;;;;4941721;29;20062;-83
2023/12/19 10:29:36;;;;;;;8.85;5.85;;;;;;;;;;4942294;29;20133;-83
2023/12/19 10:32:31;;;;;;;6.75;5.10;;;;;;;;;;4941957;29;20051;-82
2023/12/19 10:34:58;;;;;;;9.35;5.30;;;;;;;;;;4925717;29;20059;-82
2023/12/19 10:37:27;;;;;;;10.70;4.70;;;;;;;;;;4934618;29;20508;-83
2023/12/19 10:40:09;;;;;;;8.02;4.20;;;;;;;;;;4945062;29;20035;-82
2023/12/19 10:42:35;;;;;;;5.40;3.65;;;;;;;;;;4931627;29;20510;-82
2023/12/19 10:45:03;;;;;;;5.47;4.05;;;;;;;;;;4913141;29;20031;-82
2023/12/19 10:47:29;;;;;;;4.45;3.63;;;;;;;;;;4911499;29;20043;-82
2023/12/19 10:49:55;;;;;;;5.45;3.70;;;;;;;;;;4911541;29;20404;-83
2023/12/19 10:52:22;;;;;;;6.78;3.80;;;;;;;;;;4922799;29;20039;-83
2023/12/19 10:54:50;;;;;;;7.22;3.88;;;;;;;;;;4903271;29;20039;-83
2023/12/19 10:57:17;;;;;;;4.72;3.38;;;;;;;;;;4940950;29;20071;-82
2023/12/19 11:00:22;;;;;;;5.28;3.70;;;;;;;;;;4934070;29;20467;-83
2023/12/19 11:02:48;;;;;;;6.78;3.92;;;;;;;;;;4851445;29;20041;-83
2023/12/19 11:05:17;;;;;;;6.80;3.90;;;;;;;;;;4846678;29;20081;-82
2023/12/19 11:07:44;;;;;;;9.07;3.92;;;;;;;;;;4884104;29;20122;-82
2023/12/19 11:10:11;;;;;;;7.20;4.10;;;;;;;;;;4909305;29;20436;-81
2023/12/19 11:12:38;;;;;;;6.40;4.50;;;;;;;;;;4896289;29;20396;-83
2023/12/19 11:15:05;;;;;;;7.28;3.70;;;;;;;;;;4931468;29;20042;-83
2023/12/19 11:17:47;;;;;;;7.75;3.90;;;;;;;;;;4930398;29;20397;-83
2023/12/19 11:20:22;;;;;;;4.93;3.30;;;;;;;;;;4934814;29;20514;-83
2023/12/19 11:23:18;;;;;;;7.18;3.50;;;;;;;;;;4916450;29;20039;-83
2023/12/19 11:25:52;;;;;;;6.40;3.60;;;;;;;;;;4948272;29;20480;-82
2023/12/19 11:28:18;;;;;;;6.50;3.53;;;;;;;;;;4934355;29;20047;-74
2023/12/19 11:30:44;;;;;;;5.35;2.83;;;;;;;;;;4911784;29;20045;-82
2023/12/19 11:33:14;;;;;;;5.05;3.72;;;;;;;;;;4932627;28;20039;-82
2023/12/19 11:35:41;;;;;;;6.28;3.40;;;;;;;;;;4926177;28;20035;-82
2023/12/19 11:38:17;;;;;;;4.88;3.45;;;;;;;;;;4907820;29;20091;-81
2023/12/19 11:40:47;;;;;;;6.45;3.40;;;;;;;;;;4921461;29;20102;-81
2023/12/19 11:43:28;;;;;;;5.32;3.63;;;;;;;;;;4935790;29;20054;-82
2023/12/19 11:46:18;;;;;;;5.32;3.47;;;;;;;;;;4928781;29;20074;-82
2023/12/19 11:48:49;;;;;;;4.40;3.30;;;;;;;;;;4924701;29;20051;-82
2023/12/19 11:51:35;;;;;;;4.45;3.00;;;;;;;;;;4931523;29;20047;-82
2023/12/19 11:54:01;;;;;;;5.78;2.97;;;;;;;;;;4950578;28;20487;-82
2023/12/19 11:56:27;;;;;;;3.50;2.78;;;;;;;;;;4933241;29;20110;-82
2023/12/19 11:58:53;;;;;;;4.05;2.63;;;;;;;;;;4923519;29;20050;-82
2023/12/19 12:01:20;;;;;;;5.28;2.72;;;;;;;;;;4941295;29;20471;-82
2023/12/19 12:03:50;;;;;;;4.30;2.60;;;;;;;;;;4944232;29;20043;-81
2023/12/19 12:06:20;;;;;;;4.35;1.90;;;;;;;;;;4930287;29;20053;-81
2023/12/19 12:08:53;;;;;;;4.30;2.00;;;;;;;;;;4933440;29;20043;-82
2023/12/19 12:11:19;;;;;;;2.42;2.10;;;;;;;;;;4928054;29;20046;-81
2023/12/19 12:13:59;;;;;;;4.85;2.20;;;;;;;;;;4928535;29;20067;-81
2023/12/19 12:16:34;;;;;;;6.32;2.90;;;;;;;;;;4927671;29;20047;-81
2023/12/19 12:19:08;;;;;;;4.03;2.10;;;;;;;;;;4927800;29;20058;-81
2023/12/19 12:21:34;;;;;;;6.13;2.58;;;;;;;;;;4909079;29;20103;-80
2023/12/19 12:24:01;;;;;;;5.88;2.13;;;;;;;;;;4920196;29;20043;-81
2023/12/19 12:26:28;;;;;;;5.95;2.45;;;;;;;;;;4926815;29;20492;-81
2023/12/19 12:28:54;;;;;;;4.72;2.33;;;;;;;;;;4905859;29;20122;-80
2023/12/19 12:31:20;;;;;;;5.10;2.17;;;;;;;;;;4927280;29;20051;-81
2023/12/19 12:33:46;;;;;;;4.45;1.90;;;;;;;;;;4929445;28;20054;-81
2023/12/19 12:36:13;;;;;;;3.45;1.60;;;;;;;;;;4932087;29;20052;-81
2023/12/19 12:38:39;;;;;;;3.20;1.60;;;;;;;;;;4930120;29;20496;-81
2023/12/19 12:41:07;;;;;;;3.42;1.73;;;;;;;;;;4901618;29;20468;-82
2023/12/19 12:43:37;;;;;;;3.40;1.63;;;;;;;;;;4901038;29;20035;-81
2023/12/19 12:46:13;;;;;;;4.40;1.95;;;;;;;;;;4934453;28;20392;-82
2023/12/19 12:48:45;;;;;;;3.70;1.80;;;;;;;;;;4928153;29;20099;-81
2023/12/19 12:51:12;;;;;;;2.45;1.70;;;;;;;;;;4924649;29;20063;-81
2023/12/19 12:53:38;;;;;;;2.83;1.52;;;;;;;;;;4932346;29;20113;-81
2023/12/19 12:56:13;;;;;;;2.33;1.35;;;;;;;;;;4916652;29;20075;-81
2023/12/19 12:58:40;;;;;;;3.97;1.85;;;;;;;;;;4940692;29;20066;-81
2023/12/19 13:01:07;;;;;;;4.00;1.75;;;;;;;;;;4927606;29;20388;-81
2023/12/19 13:03:33;;;;;;;2.60;1.60;;;;;;;;;;4924029;29;20476;-81
2023/12/19 13:06:00;;;;;;;2.60;1.65;;;;;;;;;;4922786;29;20047;-81
2023/12/19 13:08:30;;;;;;;4.00;2.10;;;;;;;;;;4897418;29;20050;-81
2023/12/19 13:10:57;;;;;;;4.32;2.13;;;;;;;;;;4946565;29;20042;-81
2023/12/19 13:13:24;;;;;;;2.75;1.85;;;;;;;;;;4947096;29;20039;-81
2023/12/19 13:15:52;;;;;;;2.42;1.77;;;;;;;;;;4907573;29;20043;-81
2023/12/19 13:18:18;;;;;;;3.15;1.80;;;;;;;;;;4923048;29;20106;-81
2023/12/19 13:20:44;;;;;;;3.33;1.80;;;;;;;;;;4923266;29;20444;-82
2023/12/19 13:23:10;;;;;;;3.90;1.80;;;;;;;;;;4926675;29;20391;-82
2023/12/19 13:25:38;;;;;;;4.97;2.30;;;;;;;;;;4926861;29;20040;-81
2023/12/19 13:28:04;;;;;;;4.45;1.90;;;;;;;;;;4925793;29;20396;-81
2023/12/19 13:30:30;;;;;;;3.13;1.65;;;;;;;;;;4904508;29;20054;-81
2023/12/19 13:32:56;;;;;;;3.63;2.03;;;;;;;;;;4913879;29;20042;-81
2023/12/19 13:35:22;;;;;;;5.65;1.75;;;;;;;;;;4909294;29;20047;-80
2023/12/19 13:37:49;;;;;;;3.50;1.92;;;;;;;;;;4921201;29;20051;-81
2023/12/19 13:40:15;;;;;;;4.95;2.10;;;;;;;;;;4914697;29;20507;-80
2023/12/19 13:42:43;;;;;;;6.15;2.00;;;;;;;;;;4928704;29;20383;-81
2023/12/19 13:45:09;;;;;;;2.67;1.70;;;;;;;;;;4928592;29;20047;-81
2023/12/19 13:47:36;;;;;;;3.97;1.73;;;;;;;;;;4915126;29;20031;-81
2023/12/19 13:50:04;;;;;;;3.38;1.95;;;;;;;;;;4898855;29;20138;-81
2023/12/19 13:52:30;;;;;;;3.53;1.77;;;;;;;;;;4930454;29;20059;-81
2023/12/19 13:54:56;;;;;;;4.18;1.73;;;;;;;;;;4928985;29;20039;-81
2023/12/19 13:57:22;;;;;;;4.35;1.70;;;;;;;;;;4923918;29;20054;-81
2023/12/19 13:59:48;;;;;;;4.43;1.92;;;;;;;;;;4926607;29;20039;-81
2023/12/19 14:02:18;;;;;;;5.75;2.38;;;;;;;;;;4915869;29;20035;-81
2023/12/19 14:04:46;;;;;;;5.65;2.28;;;;;;;;;;4944078;29;20078;-81
2023/12/19 14:07:13;;;;;;;4.70;2.10;;;;;;;;;;4920318;29;20044;-81
2023/12/19 14:09:39;;;;;;;6.03;1.98;;;;;;;;;;4900927;29;20047;-81
2023/12/19 14:12:06;;;;;;;5.00;2.17;;;;;;;;;;4943362;29;20048;-80
2023/12/19 14:14:32;;;;;;;9.70;2.50;;;;;;;;;;4907473;29;20127;-81
2023/12/19 14:16:58;;;;;;;7.63;2.50;;;;;;;;;;4928787;29;20096;-81
2023/12/19 14:19:24;;;;;;;5.57;2.13;;;;;;;;;;4909208;29;20130;-81
2023/12/19 14:21:50;;;;;;;6.93;2.45;;;;;;;;;;4905625;29;20039;-80
2023/12/19 14:24:16;;;;;;;5.68;2.63;;;;;;;;;;4917148;29;20433;-80
2023/12/19 14:26:45;;;;;;;5.70;2.15;;;;;;;;;;4917042;29;20040;-80
2023/12/19 14:29:12;;;;;;;4.80;2.20;;;;;;;;;;4929577;29;20396;-80
2023/12/19 14:31:38;;;;;;;9.05;2.28;;;;;;;;;;4924411;29;20119;-80
2023/12/19 14:34:04;;;;;;;7.13;2.50;;;;;;;;;;4921933;29;20035;-80
2023/12/19 14:36:30;;;;;;;11.23;2.78;;;;;;;;;;4924386;29;20043;-80